createdAt,value
2018-06-13T00:00:33.295Z,99.99
2018-06-13T00:01:33.263Z,99.99
2018-06-13T00:02:33.435Z,99.99
2018-06-13T00:03:33.531Z,99.99
2018-06-13T00:04:33.711Z,99.99
2018-06-13T00:05:33.787Z,99.99
2018-06-13T00:06:33.679Z,99.99
2018-06-13T00:07:33.827Z,99.99
2018-06-13T00:08:33.720Z,99.99
2018-06-13T00:09:33.943Z,99.99
2018-06-13T00:10:34.060Z,99.99
2018-06-13T00:11:33.948Z,99.99
2018-06-13T00:12:33.972Z,99.99
2018-06-13T00:13:34.040Z,99.99
2018-06-13T00:14:34.204Z,99.99
2018-06-13T00:15:34.164Z,99.99
2018-06-13T00:16:34.228Z,99.99
2018-06-13T00:17:34.292Z,99.99
2018-06-13T00:18:34.355Z,99.99
2018-06-13T00:19:34.428Z,99.99
2018-06-13T00:20:34.499Z,99.99
2018-06-13T00:21:34.552Z,99.99
2018-06-13T00:22:34.620Z,99.99
2018-06-13T00:23:34.675Z,99.99
2018-06-13T00:24:34.748Z,99.99
2018-06-13T00:25:34.812Z,99.99
2018-06-13T00:26:34.875Z,99.99
2018-06-13T00:27:34.932Z,99.99
2018-06-13T00:28:34.996Z,99.99
2018-06-13T00:29:35.072Z,99.99
2018-06-13T00:30:35.132Z,99.99
2018-06-13T00:31:35.188Z,99.99
2018-06-13T00:32:35.253Z,99.99
2018-06-13T00:33:35.317Z,99.99
2018-06-13T00:34:35.389Z,99.99
2018-06-13T00:35:35.453Z,99.99
2018-06-13T00:36:35.510Z,99.99
2018-06-13T00:37:35.576Z,99.99
2018-06-13T00:38:35.637Z,99.99
2018-06-13T00:39:35.708Z,99.99
2018-06-13T00:40:35.779Z,99.99
2018-06-13T00:41:35.829Z,99.99
2018-06-13T00:42:35.897Z,99.99
2018-06-13T00:43:35.957Z,99.99
2018-06-13T00:44:36.033Z,99.99
2018-06-13T00:45:36.097Z,99.99
2018-06-13T00:46:36.152Z,99.99
2018-06-13T00:47:36.213Z,99.99
2018-06-13T00:48:36.279Z,99.99
2018-06-13T00:49:36.352Z,99.99
2018-06-13T00:50:36.461Z,99.99
2018-06-13T00:51:36.469Z,99.99
2018-06-13T00:52:36.569Z,99.99
2018-06-13T00:53:36.599Z,99.99
2018-06-13T00:54:36.674Z,99.99
2018-06-13T00:55:36.733Z,99.99
2018-06-13T00:56:36.789Z,99.99
2018-06-13T00:57:36.853Z,99.99
2018-06-13T00:58:36.917Z,99.99
2018-06-13T00:59:36.989Z,99.99
2018-06-13T01:00:37.054Z,99.99
2018-06-13T01:01:37.109Z,99.99
2018-06-13T01:02:37.173Z,99.99
2018-06-13T01:03:37.237Z,99.99
2018-06-13T01:04:37.470Z,99.99
2018-06-13T01:05:37.366Z,99.99
2018-06-13T01:06:37.430Z,99.99
2018-06-13T01:07:37.494Z,99.99
2018-06-13T01:08:37.558Z,99.99
2018-06-13T01:09:37.626Z,99.99
2018-06-13T01:10:37.698Z,99.99
2018-06-13T01:11:37.754Z,99.99
2018-06-13T01:12:37.814Z,99.99
2018-06-13T01:13:37.878Z,99.99
2018-06-13T01:14:37.946Z,99.99
2018-06-13T01:15:38.010Z,99.99
2018-06-13T01:16:38.074Z,99.99
2018-06-13T01:17:38.134Z,99.99
2018-06-13T01:18:38.198Z,99.99
2018-06-13T01:19:38.418Z,99.99
2018-06-13T01:20:38.326Z,99.99
2018-06-13T01:21:38.386Z,99.99
2018-06-13T01:22:38.454Z,99.99
2018-06-13T01:23:38.518Z,99.99
2018-06-13T01:24:38.587Z,99.99
2018-06-13T01:25:38.651Z,99.99
2018-06-13T01:26:38.702Z,99.99
2018-06-13T01:27:38.770Z,99.99
2018-06-13T01:28:38.839Z,99.99
2018-06-13T01:29:38.906Z,99.99
2018-06-13T01:30:38.971Z,99.99
2018-06-13T01:31:39.026Z,99.99
2018-06-13T01:32:39.090Z,99.99
2018-06-13T01:33:39.155Z,99.99
2018-06-13T01:34:39.382Z,99.99
2018-06-13T01:35:39.283Z,99.99
2018-06-13T01:36:39.347Z,99.99
2018-06-13T01:37:39.415Z,99.99
2018-06-13T01:38:39.475Z,99.99
2018-06-13T01:39:39.546Z,99.99
2018-06-13T01:40:39.610Z,99.99
2018-06-13T01:41:39.667Z,99.99
2018-06-13T01:42:39.751Z,99.99
2018-06-13T01:43:39.794Z,99.99
2018-06-13T01:44:39.867Z,99.99
2018-06-13T01:45:39.927Z,99.99
2018-06-13T01:46:39.987Z,99.99
2018-06-13T01:47:40.051Z,99.99
2018-06-13T01:48:40.115Z,99.99
2018-06-13T01:49:40.331Z,99.99
2018-06-13T01:50:40.243Z,99.99
2018-06-13T01:51:40.307Z,99.99
2018-06-13T01:52:40.372Z,99.99
2018-06-13T01:53:40.437Z,99.99
2018-06-13T01:54:40.503Z,99.99
2018-06-13T01:55:40.568Z,99.99
2018-06-13T01:56:40.627Z,99.99
2018-06-13T01:57:40.717Z,99.99
2018-06-13T01:58:40.752Z,99.99
2018-06-13T01:59:40.824Z,99.99
2018-06-13T02:00:40.887Z,99.99
2018-06-13T02:01:40.944Z,99.99
2018-06-13T02:02:41.012Z,99.99
2018-06-13T02:03:41.072Z,99.99
2018-06-13T02:04:41.136Z,99.99
2018-06-13T02:05:41.308Z,99.99
2018-06-13T02:06:41.264Z,99.99
2018-06-13T02:07:41.328Z,99.99
2018-06-13T02:08:41.392Z,99.99
2018-06-13T02:09:41.456Z,99.99
2018-06-13T02:10:41.528Z,99.99
2018-06-13T02:11:41.592Z,99.99
2018-06-13T02:12:41.648Z,99.99
2018-06-13T02:13:41.713Z,99.99
2018-06-13T02:14:41.778Z,99.99
2018-06-13T02:15:41.848Z,99.99
2018-06-13T02:16:41.917Z,99.99
2018-06-13T02:17:41.968Z,99.99
2018-06-13T02:18:42.033Z,99.99
2018-06-13T02:19:42.097Z,99.99
2018-06-13T02:20:42.320Z,99.99
2018-06-13T02:21:42.225Z,99.99
2018-06-13T02:22:42.289Z,99.99
2018-06-13T02:23:42.353Z,99.99
2018-06-13T02:24:42.417Z,99.99
2018-06-13T02:25:42.489Z,99.99
2018-06-13T02:26:42.553Z,99.99
2018-06-13T02:27:42.609Z,99.99
2018-06-13T02:28:42.675Z,99.99
2018-06-13T02:29:42.737Z,99.99
2018-06-13T02:30:42.809Z,99.99
2018-06-13T02:31:42.880Z,99.99
2018-06-13T02:32:42.933Z,99.99
2018-06-13T02:33:42.994Z,99.99
2018-06-13T02:34:43.061Z,99.99
2018-06-13T02:35:43.244Z,99.99
2018-06-13T02:36:43.194Z,99.99
2018-06-13T02:37:43.249Z,99.99
2018-06-13T02:38:43.358Z,99.99
2018-06-13T02:39:43.378Z,99.99
2018-06-13T02:40:43.453Z,99.99
2018-06-13T02:41:43.514Z,99.99
2018-06-13T02:42:43.570Z,99.99
2018-06-13T02:43:43.634Z,99.99
2018-06-13T02:44:43.698Z,99.99
2018-06-13T02:45:43.770Z,99.99
2018-06-13T02:46:43.837Z,99.99
2018-06-13T02:47:43.890Z,99.99
2018-06-13T02:48:43.954Z,99.99
2018-06-13T02:49:44.018Z,99.99
2018-06-13T02:50:44.190Z,99.99
2018-06-13T02:51:44.146Z,99.99
2018-06-13T02:52:44.210Z,99.99
2018-06-13T02:53:44.274Z,99.99
2018-06-13T02:54:44.342Z,99.99
2018-06-13T02:55:44.411Z,99.99
2018-06-13T02:56:44.474Z,99.99
2018-06-13T02:57:44.530Z,99.99
2018-06-13T02:58:44.595Z,99.99
2018-06-13T02:59:44.658Z,99.99
2018-06-13T03:00:44.731Z,99.99
2018-06-13T03:01:44.794Z,99.99
2018-06-13T03:02:44.859Z,99.99
2018-06-13T03:03:44.914Z,99.99
2018-06-13T03:04:44.979Z,99.99
2018-06-13T03:05:45.051Z,99.99
2018-06-13T03:06:45.115Z,99.99
2018-06-13T03:07:45.171Z,99.99
2018-06-13T03:08:45.234Z,99.99
2018-06-13T03:09:45.299Z,99.99
2018-06-13T03:10:45.478Z,99.99
2018-06-13T03:11:45.427Z,99.99
2018-06-13T03:12:45.495Z,99.99
2018-06-13T03:13:45.555Z,99.99
2018-06-13T03:14:45.627Z,99.99
2018-06-13T03:15:45.691Z,99.99
2018-06-13T03:16:45.756Z,99.99
2018-06-13T03:17:45.812Z,99.99
2018-06-13T03:18:45.875Z,99.99
2018-06-13T03:19:45.939Z,99.99
2018-06-13T03:20:46.040Z,99.99
2018-06-13T03:21:46.075Z,99.99
2018-06-13T03:22:46.131Z,99.99
2018-06-13T03:23:46.200Z,99.99
2018-06-13T03:24:46.259Z,99.99
2018-06-13T03:25:46.400Z,99.99
2018-06-13T03:26:46.387Z,99.99
2018-06-13T03:27:46.452Z,99.99
2018-06-13T03:28:46.516Z,99.99
2018-06-13T03:29:46.579Z,99.99
2018-06-13T03:30:46.652Z,99.99
2018-06-13T03:31:46.723Z,99.99
2018-06-13T03:32:46.776Z,99.99
2018-06-13T03:33:46.837Z,99.99
2018-06-13T03:34:46.899Z,99.99
2018-06-13T03:35:46.972Z,99.99
2018-06-13T03:36:47.036Z,99.99
2018-06-13T03:37:47.092Z,99.99
2018-06-13T03:38:47.156Z,99.99
2018-06-13T03:39:47.220Z,99.99
2018-06-13T03:40:47.291Z,99.99
2018-06-13T03:41:47.461Z,99.99
2018-06-13T03:42:47.413Z,99.99
2018-06-13T03:43:47.476Z,99.99
2018-06-13T03:44:47.545Z,99.99
2018-06-13T03:45:47.605Z,99.99
2018-06-13T03:46:47.676Z,99.99
2018-06-13T03:47:47.741Z,99.99
2018-06-13T03:48:47.801Z,99.99
2018-06-13T03:49:48.085Z,99.99
2018-06-13T03:50:47.936Z,99.99
2018-06-13T03:51:47.997Z,99.99
2018-06-13T03:52:48.061Z,99.99
2018-06-13T03:53:48.117Z,99.99
2018-06-13T03:54:48.189Z,99.99
2018-06-13T03:55:48.249Z,99.99
2018-06-13T03:56:48.433Z,99.99
2018-06-13T03:57:48.373Z,99.99
2018-06-13T03:58:48.439Z,99.99
2018-06-13T03:59:48.506Z,99.99
2018-06-13T04:00:48.569Z,99.99
2018-06-13T04:01:48.660Z,99.99
2018-06-13T04:02:48.709Z,99.99
2018-06-13T04:03:48.761Z,99.99
2018-06-13T04:04:48.825Z,99.99
2018-06-13T04:05:48.890Z,99.99
2018-06-13T04:06:48.957Z,99.99
2018-06-13T04:07:49.022Z,99.99
2018-06-13T04:08:49.081Z,99.99
2018-06-13T04:09:49.146Z,99.99
2018-06-13T04:10:49.217Z,99.99
2018-06-13T04:11:49.274Z,99.99
2018-06-13T04:12:49.426Z,99.99
2018-06-13T04:13:49.402Z,99.99
2018-06-13T04:14:49.554Z,99.99
2018-06-13T04:15:49.530Z,99.99
2018-06-13T04:16:49.594Z,99.99
2018-06-13T04:17:49.662Z,99.99
2018-06-13T04:18:49.726Z,99.99
2018-06-13T04:19:49.786Z,99.99
2018-06-13T04:20:49.851Z,99.99
2018-06-13T04:21:49.915Z,99.99
2018-06-13T04:22:49.982Z,99.99
2018-06-13T04:23:50.051Z,99.99
2018-06-13T04:24:50.106Z,99.99
2018-06-13T04:25:50.175Z,99.99
2018-06-13T04:26:50.249Z,99.99
2018-06-13T04:27:50.460Z,99.99
2018-06-13T04:28:50.367Z,99.99
2018-06-13T04:29:50.428Z,99.99
2018-06-13T04:30:50.491Z,99.99
2018-06-13T04:31:50.554Z,99.99
2018-06-13T04:32:50.687Z,99.99
2018-06-13T04:33:50.691Z,99.99
2018-06-13T04:34:50.746Z,99.99
2018-06-13T04:35:50.852Z,99.99
2018-06-13T04:36:50.879Z,99.99
2018-06-13T04:37:50.946Z,99.99
2018-06-13T04:38:51.011Z,99.99
2018-06-13T04:39:51.070Z,99.99
2018-06-13T04:40:51.135Z,99.99
2018-06-13T04:41:51.201Z,99.99
2018-06-13T04:42:51.263Z,99.99
2018-06-13T04:43:51.351Z,99.99
2018-06-13T04:44:51.392Z,99.99
2018-06-13T04:45:51.455Z,99.99
2018-06-13T04:46:51.519Z,99.99
2018-06-13T04:47:51.583Z,99.99
2018-06-13T04:48:51.655Z,99.99
2018-06-13T04:49:51.719Z,99.99
2018-06-13T04:50:51.775Z,99.99
2018-06-13T04:51:51.839Z,99.99
2018-06-13T04:52:51.903Z,99.99
2018-06-13T04:53:51.975Z,99.99
2018-06-13T04:54:52.040Z,99.99
2018-06-13T04:55:52.095Z,99.99
2018-06-13T04:56:52.164Z,99.99
2018-06-13T04:57:52.223Z,99.99
2018-06-13T04:58:52.403Z,99.99
2018-06-13T04:59:52.355Z,99.99
2018-06-13T05:00:52.420Z,99.99
2018-06-13T05:01:52.484Z,99.99
2018-06-13T05:02:52.548Z,99.99
2018-06-13T05:03:52.619Z,99.99
2018-06-13T05:04:52.684Z,99.99
2018-06-13T05:05:52.740Z,99.99
2018-06-13T05:06:52.804Z,99.99
2018-06-13T05:07:52.868Z,99.99
2018-06-13T05:08:52.939Z,99.99
2018-06-13T05:09:53.004Z,99.99
2018-06-13T05:10:53.064Z,99.99
2018-06-13T05:11:53.128Z,99.99
2018-06-13T05:12:53.192Z,99.99
2018-06-13T05:13:53.528Z,99.99
2018-06-13T05:14:53.396Z,99.99
2018-06-13T05:15:53.388Z,99.99
2018-06-13T05:16:53.452Z,99.99
2018-06-13T05:17:53.516Z,99.99
2018-06-13T05:18:53.588Z,99.99
2018-06-13T05:19:53.653Z,99.99
2018-06-13T05:20:53.717Z,99.99
2018-06-13T05:21:53.776Z,99.91
2018-06-13T05:22:53.840Z,99.99
2018-06-13T05:23:53.913Z,99.99
2018-06-13T05:24:53.976Z,99.53
2018-06-13T05:25:54.036Z,99.72
2018-06-13T05:26:54.102Z,99.99
2018-06-13T05:27:54.165Z,99.99
2018-06-13T05:28:54.249Z,98.67
2018-06-13T05:29:54.296Z,99.15
2018-06-13T05:30:54.361Z,99.15
2018-06-13T05:31:54.425Z,99.15
2018-06-13T05:32:54.488Z,99.43
2018-06-13T05:33:54.563Z,99.05
2018-06-13T05:34:54.629Z,98.86
2018-06-13T05:35:54.685Z,98.67
2018-06-13T05:36:54.755Z,99.72
2018-06-13T05:37:54.815Z,99.63
2018-06-13T05:38:54.888Z,98.10
2018-06-13T05:39:54.954Z,97.90
2018-06-13T05:40:55.014Z,98.47
2018-06-13T05:41:55.117Z,97.61
2018-06-13T05:42:55.141Z,97.61
2018-06-13T05:43:55.406Z,98.28
2018-06-13T05:44:55.270Z,98.38
2018-06-13T05:45:55.334Z,97.95
2018-06-13T05:46:55.401Z,98.43
2018-06-13T05:47:55.466Z,97.38
2018-06-13T05:48:55.537Z,98.28
2018-06-13T05:49:55.602Z,98.05
2018-06-13T05:50:55.657Z,98.62
2018-06-13T05:51:55.725Z,97.66
2018-06-13T05:52:55.796Z,98.14
2018-06-13T05:53:55.861Z,98.10
2018-06-13T05:54:55.954Z,98.86
2018-06-13T05:55:55.989Z,98.10
2018-06-13T05:56:56.050Z,98.67
2018-06-13T05:57:56.114Z,98.00
2018-06-13T05:58:56.298Z,98.19
2018-06-13T05:59:56.254Z,98.19
2018-06-13T06:00:56.310Z,98.86
2018-06-13T06:01:56.374Z,98.76
2018-06-13T06:02:56.438Z,99.24
2018-06-13T06:03:56.510Z,99.53
2018-06-13T06:04:56.575Z,99.05
2018-06-13T06:05:56.634Z,98.86
2018-06-13T06:06:56.699Z,99.72
2018-06-13T06:07:56.762Z,99.99
2018-06-13T06:08:56.834Z,99.99
2018-06-13T06:09:56.898Z,99.05
2018-06-13T06:10:56.959Z,99.34
2018-06-13T06:11:57.023Z,99.43
2018-06-13T06:12:57.087Z,99.43
2018-06-13T06:13:57.462Z,99.63
2018-06-13T06:14:57.219Z,99.87
2018-06-13T06:15:57.282Z,99.29
2018-06-13T06:16:57.348Z,99.48
2018-06-13T06:17:57.411Z,99.87
2018-06-13T06:18:57.483Z,98.91
2018-06-13T06:19:57.551Z,97.85
2018-06-13T06:20:57.607Z,98.33
2018-06-13T06:21:57.671Z,99.19
2018-06-13T06:22:57.739Z,96.61
2018-06-13T06:23:57.815Z,95.56
2018-06-13T06:24:57.875Z,96.27
2018-06-13T06:25:57.935Z,97.23
2018-06-13T06:26:58.000Z,96.18
2018-06-13T06:27:58.109Z,95.26
2018-06-13T06:28:58.148Z,95.94
2018-06-13T06:29:58.196Z,95.12
2018-06-13T06:30:58.259Z,95.21
2018-06-13T06:31:58.328Z,95.60
2018-06-13T06:32:58.392Z,94.26
2018-06-13T06:33:58.464Z,94.45
2018-06-13T06:34:58.528Z,94.59
2018-06-13T06:35:58.589Z,94.89
2018-06-13T06:36:58.691Z,94.79
2018-06-13T06:37:58.720Z,95.46
2018-06-13T06:38:58.793Z,96.13
2018-06-13T06:39:58.856Z,96.47
2018-06-13T06:40:58.917Z,96.56
2018-06-13T06:41:58.984Z,96.08
2018-06-13T06:42:59.044Z,94.84
2018-06-13T06:43:59.129Z,95.12
2018-06-13T06:44:59.176Z,94.54
2018-06-13T06:45:59.245Z,94.74
2018-06-13T06:46:59.313Z,94.45
2018-06-13T06:47:59.373Z,94.35
2018-06-13T06:48:59.445Z,95.12
2018-06-13T06:49:59.513Z,95.21
2018-06-13T06:50:59.571Z,94.45
2018-06-13T06:51:59.637Z,94.98
2018-06-13T06:52:59.709Z,93.92
2018-06-13T06:53:59.773Z,94.31
2018-06-13T06:54:59.841Z,94.40
2018-06-13T06:55:59.901Z,94.40
2018-06-13T06:56:59.965Z,94.02
2018-06-13T06:58:00.030Z,94.02
2018-06-13T06:59:00.114Z,92.58
2018-06-13T07:00:00.163Z,93.73
2018-06-13T07:01:00.229Z,93.44
2018-06-13T07:02:00.294Z,92.10
2018-06-13T07:03:00.359Z,90.85
2018-06-13T07:04:00.430Z,92.43
2018-06-13T07:05:00.497Z,91.47
2018-06-13T07:06:00.558Z,92.43
2018-06-13T07:07:00.621Z,91.47
2018-06-13T07:08:00.690Z,93.44
2018-06-13T07:09:00.764Z,92.10
2018-06-13T07:10:00.826Z,89.54
2018-06-13T07:11:00.886Z,88.78
2018-06-13T07:12:00.954Z,88.30
2018-06-13T07:13:01.018Z,88.01
2018-06-13T07:14:01.102Z,88.68
2018-06-13T07:15:01.152Z,88.10
2018-06-13T07:16:01.218Z,88.97
2018-06-13T07:17:01.292Z,90.26
2018-06-13T07:18:01.351Z,88.92
2018-06-13T07:19:01.444Z,86.85
2018-06-13T07:20:01.495Z,86.47
2018-06-13T07:21:01.562Z,87.58
2018-06-13T07:22:01.619Z,88.93
2018-06-13T07:23:01.682Z,89.12
2018-06-13T07:24:01.761Z,90.46
2018-06-13T07:25:01.823Z,90.03
2018-06-13T07:26:01.883Z,88.02
2018-06-13T07:27:01.953Z,89.94
2018-06-13T07:28:02.016Z,90.66
2018-06-13T07:29:02.103Z,91.24
2018-06-13T07:30:02.157Z,91.14
2018-06-13T07:31:02.215Z,91.00
2018-06-13T07:32:02.284Z,90.81
2018-06-13T07:33:02.347Z,91.48
2018-06-13T07:34:02.431Z,92.72
2018-06-13T07:35:02.491Z,94.17
2018-06-13T07:36:02.547Z,92.15
2018-06-13T07:37:02.611Z,94.35
2018-06-13T07:38:02.682Z,93.21
2018-06-13T07:39:02.751Z,93.21
2018-06-13T07:40:02.815Z,93.01
2018-06-13T07:41:02.875Z,93.11
2018-06-13T07:42:02.944Z,94.54
2018-06-13T07:43:03.007Z,95.31
2018-06-13T07:44:03.467Z,93.68
2018-06-13T07:45:03.139Z,93.11
2018-06-13T07:46:03.203Z,93.40
2018-06-13T07:47:03.271Z,92.91
2018-06-13T07:48:03.336Z,95.89
2018-06-13T07:49:03.404Z,93.78
2018-06-13T07:50:03.484Z,94.93
2018-06-13T07:51:03.535Z,93.73
2018-06-13T07:52:03.599Z,93.44
2018-06-13T07:53:03.668Z,93.83
2018-06-13T07:54:03.732Z,94.50
2018-06-13T07:55:03.806Z,93.73
2018-06-13T07:56:03.868Z,93.35
2018-06-13T07:57:03.928Z,94.79
2018-06-13T07:58:03.992Z,94.59
2018-06-13T07:59:04.060Z,95.36
2018-06-13T08:00:04.452Z,95.51
2018-06-13T08:01:04.192Z,96.89
2018-06-13T08:02:04.257Z,95.36
2018-06-13T08:03:04.322Z,95.89
2018-06-13T08:04:04.388Z,95.75
2018-06-13T08:05:04.460Z,95.98
2018-06-13T08:06:04.525Z,94.26
2018-06-13T08:07:04.584Z,94.74
2018-06-13T08:08:04.648Z,94.74
2018-06-13T08:09:04.713Z,94.07
2018-06-13T08:10:04.785Z,94.26
2018-06-13T08:11:04.849Z,94.84
2018-06-13T08:12:04.913Z,95.03
2018-06-13T08:13:04.982Z,94.84
2018-06-13T08:14:05.041Z,95.41
2018-06-13T08:15:05.349Z,96.94
2018-06-13T08:16:05.169Z,94.35
2018-06-13T08:17:05.238Z,95.12
2018-06-13T08:18:05.300Z,94.45
2018-06-13T08:19:05.365Z,94.50
2018-06-13T08:20:05.437Z,94.12
2018-06-13T08:21:05.511Z,93.88
2018-06-13T08:22:05.560Z,94.17
2018-06-13T08:23:05.625Z,95.36
2018-06-13T08:24:05.692Z,94.40
2018-06-13T08:25:05.766Z,95.84
2018-06-13T08:26:05.860Z,94.50
2018-06-13T08:27:05.889Z,94.89
2018-06-13T08:28:05.953Z,94.02
2018-06-13T08:29:06.018Z,94.02
2018-06-13T08:30:06.193Z,93.44
2018-06-13T08:31:06.149Z,94.50
2018-06-13T08:32:06.213Z,94.50
2018-06-13T08:33:06.277Z,93.83
2018-06-13T08:34:06.345Z,94.31
2018-06-13T08:35:06.417Z,94.02
2018-06-13T08:36:06.481Z,94.12
2018-06-13T08:37:06.541Z,93.44
2018-06-13T08:38:06.605Z,93.54
2018-06-13T08:39:06.669Z,93.16
2018-06-13T08:40:06.742Z,92.77
2018-06-13T08:41:06.810Z,93.63
2018-06-13T08:42:06.866Z,92.10
2018-06-13T08:43:06.929Z,92.58
2018-06-13T08:44:06.997Z,93.63
2018-06-13T08:45:07.070Z,93.35
2018-06-13T08:46:07.133Z,91.57
2018-06-13T08:47:07.193Z,91.38
2018-06-13T08:48:07.257Z,90.38
2018-06-13T08:49:07.321Z,92.24
2018-06-13T08:50:07.394Z,90.33
2018-06-13T08:51:07.458Z,89.94
2018-06-13T08:52:07.518Z,90.14
2018-06-13T08:53:07.587Z,90.33
2018-06-13T08:54:07.698Z,90.52
2018-06-13T08:55:07.722Z,90.71
2018-06-13T08:56:07.786Z,91.28
2018-06-13T08:57:07.846Z,90.04
2018-06-13T08:58:07.910Z,90.56
2018-06-13T08:59:07.978Z,90.08
2018-06-13T09:00:08.050Z,89.41
2018-06-13T09:01:08.116Z,87.88
2018-06-13T09:02:08.174Z,88.74
2018-06-13T09:03:08.238Z,90.66
2018-06-13T09:04:08.302Z,88.74
2018-06-13T09:05:08.386Z,88.07
2018-06-13T09:06:08.435Z,85.00
2018-06-13T09:07:08.500Z,86.44
2018-06-13T09:08:08.567Z,86.25
2018-06-13T09:09:08.631Z,87.16
2018-06-13T09:10:08.703Z,87.16
2018-06-13T09:11:08.771Z,87.26
2018-06-13T09:12:08.827Z,90.14
2018-06-13T09:13:08.895Z,89.56
2018-06-13T09:14:08.959Z,88.89
2018-06-13T09:15:09.036Z,88.02
2018-06-13T09:16:09.099Z,87.16
2018-06-13T09:17:09.155Z,87.93
2018-06-13T09:18:09.223Z,88.98
2018-06-13T09:19:09.287Z,88.12
2018-06-13T09:20:09.360Z,88.37
2018-06-13T09:21:09.423Z,88.84
2018-06-13T09:22:09.483Z,90.28
2018-06-13T09:23:09.547Z,90.00
2018-06-13T09:24:09.616Z,89.61
2018-06-13T09:25:09.688Z,88.98
2018-06-13T09:26:09.751Z,89.65
2018-06-13T09:27:09.811Z,91.28
2018-06-13T09:28:09.877Z,91.19
2018-06-13T09:29:09.944Z,91.19
2018-06-13T09:30:10.017Z,89.75
2018-06-13T09:31:10.139Z,89.94
2018-06-13T09:32:10.140Z,88.02
2018-06-13T09:33:10.205Z,89.37
2018-06-13T09:34:10.267Z,88.31
2018-06-13T09:35:10.364Z,90.04
2018-06-13T09:36:10.400Z,90.14
2018-06-13T09:37:10.469Z,90.52
2018-06-13T09:38:10.532Z,89.56
2018-06-13T09:39:10.599Z,90.08
2018-06-13T09:40:10.672Z,90.18
2018-06-13T09:41:10.736Z,91.72
2018-06-13T09:42:10.796Z,90.95
2018-06-13T09:43:10.862Z,88.55
2018-06-13T09:44:10.926Z,88.45
2018-06-13T09:45:11.013Z,89.70
2018-06-13T09:46:12.016Z,89.99
2018-06-13T09:47:15.139Z,89.12
2018-06-13T09:48:11.189Z,90.18
2018-06-13T09:49:11.257Z,90.95
2018-06-13T09:50:11.349Z,91.81
2018-06-13T09:51:11.652Z,91.52
2018-06-13T09:52:11.453Z,90.85
2018-06-13T09:53:11.517Z,90.37
2018-06-13T09:54:11.581Z,90.28
2018-06-13T09:55:11.649Z,90.80
2018-06-13T09:56:11.723Z,90.80
2018-06-13T09:57:11.787Z,91.38
2018-06-13T09:58:11.845Z,91.66
2018-06-13T09:59:11.918Z,90.80
2018-06-13T10:00:11.977Z,91.86
2018-06-13T10:01:12.050Z,90.03
2018-06-13T10:02:12.121Z,91.66
2018-06-13T10:03:12.173Z,91.66
2018-06-13T10:04:12.242Z,90.70
2018-06-13T10:05:12.306Z,90.70
2018-06-13T10:06:12.402Z,91.09
2018-06-13T10:07:12.438Z,90.61
2018-06-13T10:08:12.506Z,88.26
2018-06-13T10:09:12.570Z,88.79
2018-06-13T10:10:12.638Z,87.30
2018-06-13T10:11:12.761Z,87.92
2018-06-13T10:12:12.778Z,88.59
2018-06-13T10:13:12.834Z,87.25
2018-06-13T10:14:12.898Z,86.19
2018-06-13T10:15:12.969Z,85.33
2018-06-13T10:16:13.038Z,87.44
2018-06-13T10:17:13.106Z,87.63
2018-06-13T10:18:13.164Z,86.29
2018-06-13T10:19:13.230Z,85.62
2018-06-13T10:20:13.298Z,82.74
2018-06-13T10:21:13.384Z,85.42
2018-06-13T10:22:13.464Z,84.60
2018-06-13T10:23:13.494Z,82.93
2018-06-13T10:24:13.562Z,82.78
2018-06-13T10:25:13.626Z,81.30
2018-06-13T10:26:13.700Z,83.07
2018-06-13T10:27:13.766Z,82.93
2018-06-13T10:28:13.826Z,82.16
2018-06-13T10:29:13.891Z,84.51
2018-06-13T10:30:13.958Z,84.89
2018-06-13T10:31:14.030Z,84.12
2018-06-13T10:32:14.096Z,83.84
2018-06-13T10:33:14.154Z,82.20
2018-06-13T10:34:14.235Z,83.07
2018-06-13T10:35:14.286Z,84.12
2018-06-13T10:36:14.363Z,83.54
2018-06-13T10:37:14.435Z,83.07
2018-06-13T10:38:14.487Z,85.37
2018-06-13T10:39:14.554Z,85.18
2018-06-13T10:40:14.618Z,84.12
2018-06-13T10:41:14.699Z,82.20
2018-06-13T10:42:14.758Z,82.82
2018-06-13T10:43:14.825Z,82.87
2018-06-13T10:44:14.890Z,82.20
2018-06-13T10:45:14.955Z,80.76
2018-06-13T10:46:15.023Z,83.45
2018-06-13T10:47:15.091Z,85.85
2018-06-13T10:48:15.152Z,82.49
2018-06-13T10:49:15.219Z,84.12
2018-06-13T10:50:15.283Z,85.18
2018-06-13T10:51:15.363Z,87.77
2018-06-13T10:52:15.415Z,85.95
2018-06-13T10:53:15.486Z,85.18
2018-06-13T10:54:15.547Z,86.33
2018-06-13T10:55:15.615Z,88.69
2018-06-13T10:56:15.687Z,87.10
2018-06-13T10:57:15.755Z,86.96
2018-06-13T10:58:15.815Z,86.87
2018-06-13T10:59:15.879Z,88.59
2018-06-13T11:00:15.947Z,88.45
2018-06-13T11:01:16.019Z,87.68
2018-06-13T11:02:16.088Z,88.84
2018-06-13T11:03:16.147Z,88.74
2018-06-13T11:04:16.211Z,88.89
2018-06-13T11:05:16.280Z,88.89
2018-06-13T11:06:16.679Z,90.52
2018-06-13T11:07:16.408Z,91.09
2018-06-13T11:08:16.476Z,90.71
2018-06-13T11:09:16.544Z,89.04
2018-06-13T11:10:16.607Z,89.80
2018-06-13T11:11:16.674Z,89.80
2018-06-13T11:12:16.848Z,90.76
2018-06-13T11:13:16.804Z,90.57
2018-06-13T11:14:16.872Z,91.14
2018-06-13T11:15:16.935Z,90.28
2018-06-13T11:16:17.003Z,91.14
2018-06-13T11:17:17.092Z,90.76
2018-06-13T11:18:17.137Z,90.57
2018-06-13T11:19:17.200Z,91.72
2018-06-13T11:20:17.272Z,92.49
2018-06-13T11:21:17.328Z,92.10
2018-06-13T11:22:17.400Z,90.28
2018-06-13T11:23:17.468Z,90.57
2018-06-13T11:24:17.533Z,91.14
2018-06-13T11:25:17.593Z,89.90
2018-06-13T11:26:17.656Z,90.19
2018-06-13T11:27:17.728Z,91.19
2018-06-13T11:28:17.800Z,90.14
2018-06-13T11:29:17.855Z,88.60
2018-06-13T11:30:17.921Z,87.55
2018-06-13T11:31:17.984Z,87.64
2018-06-13T11:32:18.056Z,88.17
2018-06-13T11:33:18.120Z,88.65
2018-06-13T11:34:18.181Z,86.82
2018-06-13T11:35:18.248Z,85.91
2018-06-13T11:36:18.309Z,87.35
2018-06-13T11:37:18.385Z,87.96
2018-06-13T11:38:18.449Z,88.54
2018-06-13T11:39:18.509Z,83.64
2018-06-13T11:40:18.580Z,84.94
2018-06-13T11:41:18.654Z,83.30
2018-06-13T11:42:18.714Z,80.32
2018-06-13T11:43:18.777Z,80.04
2018-06-13T11:44:18.841Z,79.75
2018-06-13T11:45:18.905Z,80.80
2018-06-13T11:46:18.970Z,78.30
2018-06-13T11:47:19.041Z,78.21
2018-06-13T11:48:19.105Z,80.17
2018-06-13T11:49:19.170Z,82.38
2018-06-13T11:50:19.234Z,81.13
2018-06-13T11:51:19.301Z,77.00
2018-06-13T11:52:19.562Z,74.98
2018-06-13T11:53:19.434Z,76.52
2018-06-13T11:54:19.501Z,76.81
2018-06-13T11:55:19.569Z,76.81
2018-06-13T11:56:19.634Z,78.44
2018-06-13T11:57:19.706Z,77.25
2018-06-13T11:58:19.774Z,76.29
2018-06-13T11:59:19.837Z,76.73
2018-06-13T12:00:19.950Z,80.86
2018-06-13T12:01:19.966Z,80.96
2018-06-13T12:02:20.038Z,78.65
2018-06-13T12:03:20.106Z,81.05
2018-06-13T12:04:20.165Z,83.84
2018-06-13T12:05:20.230Z,82.68
2018-06-13T12:06:20.298Z,84.80
2018-06-13T12:07:20.472Z,81.01
2018-06-13T12:08:20.430Z,83.60
2018-06-13T12:09:20.498Z,84.85
2018-06-13T12:10:20.566Z,84.66
2018-06-13T12:11:20.628Z,81.20
2018-06-13T12:12:20.702Z,81.59
2018-06-13T12:13:20.766Z,82.35
2018-06-13T12:14:20.833Z,84.95
2018-06-13T12:15:20.895Z,84.95
2018-06-13T12:16:20.958Z,85.85
2018-06-13T12:17:21.030Z,85.33
2018-06-13T12:18:21.098Z,83.93
2018-06-13T12:19:21.159Z,86.81
2018-06-13T12:20:21.223Z,84.41
2018-06-13T12:21:21.291Z,81.43
2018-06-13T12:22:21.362Z,82.24
2018-06-13T12:23:21.428Z,82.92
2018-06-13T12:24:21.486Z,80.99
2018-06-13T12:25:21.555Z,83.30
2018-06-13T12:26:21.619Z,77.00
2018-06-13T12:27:21.695Z,77.58
2018-06-13T12:28:21.758Z,73.83
2018-06-13T12:29:21.818Z,73.63
2018-06-13T12:30:21.887Z,71.04
2018-06-13T12:31:21.957Z,73.73
2018-06-13T12:32:22.027Z,72.38
2018-06-13T12:33:22.091Z,71.46
2018-06-13T12:34:22.170Z,69.24
2018-06-13T12:35:22.219Z,71.46
2018-06-13T12:36:22.288Z,71.69
2018-06-13T12:37:22.363Z,70.62
2018-06-13T12:38:22.427Z,68.22
2018-06-13T12:39:22.487Z,69.18
2018-06-13T12:40:22.556Z,68.32
2018-06-13T12:41:22.620Z,67.55
2018-06-13T12:42:22.696Z,69.79
2018-06-13T12:43:22.760Z,67.93
2018-06-13T12:44:22.824Z,69.22
2018-06-13T12:45:22.888Z,64.98
2018-06-13T12:46:22.956Z,66.30
2018-06-13T12:47:23.032Z,65.17
2018-06-13T12:48:23.096Z,63.47
2018-06-13T12:49:23.160Z,61.67
2018-06-13T12:50:23.224Z,61.93
2018-06-13T12:51:23.293Z,62.02
2018-06-13T12:52:23.368Z,61.32
2018-06-13T12:53:23.437Z,63.06